sensor_id;sensor_type;location;lat;lon;timestamp;temperature;humidity
59025;DHT22;44806;48.008;13.666;2024-01-16T00:01:00;-0.10;99.90
59025;DHT22;44806;48.008;13.666;2024-01-16T00:03:28;-0.10;99.90
59025;DHT22;44806;48.008;13.666;2024-01-16T00:05:55;-0.10;99.90
59025;DHT22;44806;48.008;13.666;2024-01-16T00:08:22;-0.20;99.90
59025;DHT22;44806;48.008;13.666;2024-01-16T00:10:49;-0.20;99.90
59025;DHT22;44806;48.008;13.666;2024-01-16T00:13:16;-0.20;99.90
59025;DHT22;44806;48.008;13.666;2024-01-16T00:15:43;-0.20;99.90
59025;DHT22;44806;48.008;13.666;2024-01-16T00:18:10;-0.20;99.90
59025;DHT22;44806;48.008;13.666;2024-01-16T00:20:39;-0.20;99.90
59025;DHT22;44806;48.008;13.666;2024-01-16T00:23:05;-0.10;99.90
59025;DHT22;44806;48.008;13.666;2024-01-16T00:25:32;-0.20;99.90
59025;DHT22;44806;48.008;13.666;2024-01-16T00:27:59;-0.30;99.90
59025;DHT22;44806;48.008;13.666;2024-01-16T00:30:27;-0.20;99.90
59025;DHT22;44806;48.008;13.666;2024-01-16T00:32:55;-0.20;99.90
59025;DHT22;44806;48.008;13.666;2024-01-16T00:35:21;-0.20;99.90
59025;DHT22;44806;48.008;13.666;2024-01-16T00:37:50;-0.10;99.90
59025;DHT22;44806;48.008;13.666;2024-01-16T00:40:17;-0.20;99.90
59025;DHT22;44806;48.008;13.666;2024-01-16T00:42:44;-0.20;99.90
59025;DHT22;44806;48.008;13.666;2024-01-16T00:45:11;-0.20;99.90
59025;DHT22;44806;48.008;13.666;2024-01-16T00:47:38;-0.10;99.90
59025;DHT22;44806;48.008;13.666;2024-01-16T00:50:05;-0.20;99.90
59025;DHT22;44806;48.008;13.666;2024-01-16T00:52:32;-0.20;99.90
59025;DHT22;44806;48.008;13.666;2024-01-16T00:55:01;-0.20;99.90
59025;DHT22;44806;48.008;13.666;2024-01-16T00:57:28;-0.20;99.90
59025;DHT22;44806;48.008;13.666;2024-01-16T00:59:55;-0.20;99.90
59025;DHT22;44806;48.008;13.666;2024-01-16T01:02:22;-0.10;99.90
59025;DHT22;44806;48.008;13.666;2024-01-16T01:04:49;-0.10;99.90
59025;DHT22;44806;48.008;13.666;2024-01-16T01:07:16;-0.20;99.90
59025;DHT22;44806;48.008;13.666;2024-01-16T01:09:43;-0.20;99.90
59025;DHT22;44806;48.008;13.666;2024-01-16T01:12:11;-0.10;99.90
59025;DHT22;44806;48.008;13.666;2024-01-16T01:14:38;-0.20;99.90
59025;DHT22;44806;48.008;13.666;2024-01-16T01:17:05;-0.10;99.90
59025;DHT22;44806;48.008;13.666;2024-01-16T01:19:32;-0.20;99.90
59025;DHT22;44806;48.008;13.666;2024-01-16T01:21:59;-0.20;99.90
59025;DHT22;44806;48.008;13.666;2024-01-16T01:24:26;-0.10;99.90
59025;DHT22;44806;48.008;13.666;2024-01-16T01:26:53;0.00;99.90
59025;DHT22;44806;48.008;13.666;2024-01-16T01:29:21;-0.10;99.90
59025;DHT22;44806;48.008;13.666;2024-01-16T01:31:48;0.00;99.90
59025;DHT22;44806;48.008;13.666;2024-01-16T01:34:15;0.00;99.90
59025;DHT22;44806;48.008;13.666;2024-01-16T01:36:42;0.00;99.90
59025;DHT22;44806;48.008;13.666;2024-01-16T01:39:09;0.00;99.90
59025;DHT22;44806;48.008;13.666;2024-01-16T01:41:37;-0.10;99.90
59025;DHT22;44806;48.008;13.666;2024-01-16T01:44:05;-0.20;99.90
59025;DHT22;44806;48.008;13.666;2024-01-16T01:46:35;-0.20;99.90
59025;DHT22;44806;48.008;13.666;2024-01-16T01:49:03;-0.10;99.90
59025;DHT22;44806;48.008;13.666;2024-01-16T01:51:30;-0.20;99.90
59025;DHT22;44806;48.008;13.666;2024-01-16T01:53:57;-0.10;99.90
59025;DHT22;44806;48.008;13.666;2024-01-16T01:56:25;-0.10;99.90
59025;DHT22;44806;48.008;13.666;2024-01-16T01:58:54;-0.10;99.90
59025;DHT22;44806;48.008;13.666;2024-01-16T02:01:23;-0.30;99.90
59025;DHT22;44806;48.008;13.666;2024-01-16T02:03:52;-0.20;99.90
59025;DHT22;44806;48.008;13.666;2024-01-16T02:06:22;-0.20;99.90
59025;DHT22;44806;48.008;13.666;2024-01-16T02:08:49;-0.20;99.90
59025;DHT22;44806;48.008;13.666;2024-01-16T02:11:16;-0.20;99.90
59025;DHT22;44806;48.008;13.666;2024-01-16T02:13:43;-0.20;99.90
59025;DHT22;44806;48.008;13.666;2024-01-16T02:16:20;-0.20;99.90
59025;DHT22;44806;48.008;13.666;2024-01-16T02:18:47;-0.20;99.90
59025;DHT22;44806;48.008;13.666;2024-01-16T02:21:18;-0.30;99.90
59025;DHT22;44806;48.008;13.666;2024-01-16T02:23:48;-0.20;99.90
59025;DHT22;44806;48.008;13.666;2024-01-16T02:26:16;-0.20;99.90
59025;DHT22;44806;48.008;13.666;2024-01-16T02:28:43;-0.30;99.90
59025;DHT22;44806;48.008;13.666;2024-01-16T02:31:10;-0.20;99.90
59025;DHT22;44806;48.008;13.666;2024-01-16T02:33:38;-0.20;99.90
59025;DHT22;44806;48.008;13.666;2024-01-16T02:36:05;-0.20;99.90
59025;DHT22;44806;48.008;13.666;2024-01-16T02:38:32;-0.30;99.90
59025;DHT22;44806;48.008;13.666;2024-01-16T02:41:01;-0.30;99.90
59025;DHT22;44806;48.008;13.666;2024-01-16T02:43:27;-0.20;99.90
59025;DHT22;44806;48.008;13.666;2024-01-16T02:45:54;-0.20;99.90
59025;DHT22;44806;48.008;13.666;2024-01-16T02:48:21;-0.30;99.90
59025;DHT22;44806;48.008;13.666;2024-01-16T02:50:48;-0.20;99.90
59025;DHT22;44806;48.008;13.666;2024-01-16T02:53:15;-0.20;99.90
59025;DHT22;44806;48.008;13.666;2024-01-16T02:55:42;-0.20;99.90
59025;DHT22;44806;48.008;13.666;2024-01-16T02:58:10;-0.30;99.90
59025;DHT22;44806;48.008;13.666;2024-01-16T03:00:37;-0.30;99.90
59025;DHT22;44806;48.008;13.666;2024-01-16T03:03:04;-0.20;99.90
59025;DHT22;44806;48.008;13.666;2024-01-16T03:05:31;-0.30;99.70
59025;DHT22;44806;48.008;13.666;2024-01-16T03:07:58;-0.30;99.90
59025;DHT22;44806;48.008;13.666;2024-01-16T03:10:25;-0.20;99.80
59025;DHT22;44806;48.008;13.666;2024-01-16T03:12:52;-0.30;99.60
59025;DHT22;44806;48.008;13.666;2024-01-16T03:15:21;-0.30;99.90
59025;DHT22;44806;48.008;13.666;2024-01-16T03:17:47;-0.30;99.90
59025;DHT22;44806;48.008;13.666;2024-01-16T03:20:15;-0.30;99.90
59025;DHT22;44806;48.008;13.666;2024-01-16T03:22:42;-0.30;99.80
59025;DHT22;44806;48.008;13.666;2024-01-16T03:25:10;-0.40;99.70
59025;DHT22;44806;48.008;13.666;2024-01-16T03:27:38;-0.40;99.80
59025;DHT22;44806;48.008;13.666;2024-01-16T03:30:06;-0.30;99.80
59025;DHT22;44806;48.008;13.666;2024-01-16T03:32:35;-0.30;99.90
59025;DHT22;44806;48.008;13.666;2024-01-16T03:35:02;-0.40;99.90
59025;DHT22;44806;48.008;13.666;2024-01-16T03:37:29;-0.40;99.90
59025;DHT22;44806;48.008;13.666;2024-01-16T03:39:56;-0.30;99.90
59025;DHT22;44806;48.008;13.666;2024-01-16T03:42:23;-0.40;99.90
59025;DHT22;44806;48.008;13.666;2024-01-16T03:44:50;-0.30;99.90
59025;DHT22;44806;48.008;13.666;2024-01-16T03:47:18;-0.40;99.70
59025;DHT22;44806;48.008;13.666;2024-01-16T03:49:46;-0.40;99.60
59025;DHT22;44806;48.008;13.666;2024-01-16T03:52:13;-0.30;99.70
59025;DHT22;44806;48.008;13.666;2024-01-16T03:54:40;-0.30;99.90
59025;DHT22;44806;48.008;13.666;2024-01-16T03:57:07;-0.30;99.90
59025;DHT22;44806;48.008;13.666;2024-01-16T03:59:36;-0.30;99.90
59025;DHT22;44806;48.008;13.666;2024-01-16T04:02:04;-0.20;99.90
59025;DHT22;44806;48.008;13.666;2024-01-16T04:04:31;-0.20;99.70
59025;DHT22;44806;48.008;13.666;2024-01-16T04:06:59;-0.20;99.90
59025;DHT22;44806;48.008;13.666;2024-01-16T04:09:26;-0.20;99.90
59025;DHT22;44806;48.008;13.666;2024-01-16T04:11:53;-0.20;99.90
59025;DHT22;44806;48.008;13.666;2024-01-16T04:14:20;-0.20;99.40
59025;DHT22;44806;48.008;13.666;2024-01-16T04:16:47;-0.20;99.90
59025;DHT22;44806;48.008;13.666;2024-01-16T04:19:14;-0.10;99.90
59025;DHT22;44806;48.008;13.666;2024-01-16T04:21:41;-0.10;99.70
59025;DHT22;44806;48.008;13.666;2024-01-16T04:24:09;-0.10;99.50
59025;DHT22;44806;48.008;13.666;2024-01-16T04:26:36;-0.10;99.80
59025;DHT22;44806;48.008;13.666;2024-01-16T04:29:04;-0.10;99.90
59025;DHT22;44806;48.008;13.666;2024-01-16T04:31:32;-0.10;99.20
59025;DHT22;44806;48.008;13.666;2024-01-16T04:33:59;-0.20;98.80
59025;DHT22;44806;48.008;13.666;2024-01-16T04:36:25;-0.10;99.30
59025;DHT22;44806;48.008;13.666;2024-01-16T04:38:52;-0.20;99.30
59025;DHT22;44806;48.008;13.666;2024-01-16T04:41:20;-0.10;99.20
59025;DHT22;44806;48.008;13.666;2024-01-16T04:43:47;-0.10;98.90
59025;DHT22;44806;48.008;13.666;2024-01-16T04:46:15;-0.10;99.00
59025;DHT22;44806;48.008;13.666;2024-01-16T04:48:42;-0.20;99.10
59025;DHT22;44806;48.008;13.666;2024-01-16T04:51:09;-0.20;98.10
59025;DHT22;44806;48.008;13.666;2024-01-16T04:53:36;-0.20;98.20
59025;DHT22;44806;48.008;13.666;2024-01-16T04:56:12;-0.20;98.20
59025;DHT22;44806;48.008;13.666;2024-01-16T04:58:40;-0.20;98.30
59025;DHT22;44806;48.008;13.666;2024-01-16T05:01:07;-0.20;97.80
59025;DHT22;44806;48.008;13.666;2024-01-16T05:03:34;-0.20;98.20
59025;DHT22;44806;48.008;13.666;2024-01-16T05:06:02;-0.20;98.00
59025;DHT22;44806;48.008;13.666;2024-01-16T05:08:28;-0.20;98.30
59025;DHT22;44806;48.008;13.666;2024-01-16T05:10:56;-0.30;97.60
59025;DHT22;44806;48.008;13.666;2024-01-16T05:13:23;-0.20;97.10
59025;DHT22;44806;48.008;13.666;2024-01-16T05:15:51;-0.20;97.30
59025;DHT22;44806;48.008;13.666;2024-01-16T05:18:18;-0.20;97.50
59025;DHT22;44806;48.008;13.666;2024-01-16T05:20:45;-0.10;97.90
59025;DHT22;44806;48.008;13.666;2024-01-16T05:23:12;-0.20;97.60
59025;DHT22;44806;48.008;13.666;2024-01-16T05:25:39;-0.10;97.60
59025;DHT22;44806;48.008;13.666;2024-01-16T05:28:06;-0.10;97.60
59025;DHT22;44806;48.008;13.666;2024-01-16T05:30:33;-0.10;96.90
59025;DHT22;44806;48.008;13.666;2024-01-16T05:33:01;-0.10;97.60
59025;DHT22;44806;48.008;13.666;2024-01-16T05:35:29;-0.10;96.80
59025;DHT22;44806;48.008;13.666;2024-01-16T05:37:56;-0.10;97.30
59025;DHT22;44806;48.008;13.666;2024-01-16T05:40:24;-0.10;97.10
59025;DHT22;44806;48.008;13.666;2024-01-16T05:42:51;0.00;96.70
59025;DHT22;44806;48.008;13.666;2024-01-16T05:45:18;-0.10;96.40
59025;DHT22;44806;48.008;13.666;2024-01-16T05:47:45;-0.10;96.30
59025;DHT22;44806;48.008;13.666;2024-01-16T05:50:14;-0.10;96.10
59025;DHT22;44806;48.008;13.666;2024-01-16T05:52:42;-0.10;96.10
59025;DHT22;44806;48.008;13.666;2024-01-16T05:55:09;-0.10;95.90
59025;DHT22;44806;48.008;13.666;2024-01-16T05:57:36;-0.10;95.70
59025;DHT22;44806;48.008;13.666;2024-01-16T06:00:04;-0.10;95.90
59025;DHT22;44806;48.008;13.666;2024-01-16T06:02:31;-0.10;95.90
59025;DHT22;44806;48.008;13.666;2024-01-16T06:04:58;-0.10;96.10
59025;DHT22;44806;48.008;13.666;2024-01-16T06:07:27;-0.10;96.20
59025;DHT22;44806;48.008;13.666;2024-01-16T06:09:54;-0.10;95.80
59025;DHT22;44806;48.008;13.666;2024-01-16T06:12:20;-0.10;95.40
59025;DHT22;44806;48.008;13.666;2024-01-16T06:14:47;-0.10;96.20
59025;DHT22;44806;48.008;13.666;2024-01-16T06:17:14;-0.10;96.00
59025;DHT22;44806;48.008;13.666;2024-01-16T06:19:41;-0.10;96.30
59025;DHT22;44806;48.008;13.666;2024-01-16T06:22:08;-0.10;96.40
59025;DHT22;44806;48.008;13.666;2024-01-16T06:24:37;-0.20;96.00
59025;DHT22;44806;48.008;13.666;2024-01-16T06:27:04;-0.20;96.80
59025;DHT22;44806;48.008;13.666;2024-01-16T06:29:32;-0.20;96.80
59025;DHT22;44806;48.008;13.666;2024-01-16T06:31:59;-0.20;96.10
59025;DHT22;44806;48.008;13.666;2024-01-16T06:34:26;-0.20;96.00
59025;DHT22;44806;48.008;13.666;2024-01-16T06:36:53;-0.20;96.80
59025;DHT22;44806;48.008;13.666;2024-01-16T06:39:20;-0.20;95.90
59025;DHT22;44806;48.008;13.666;2024-01-16T06:41:48;-0.30;95.80
59025;DHT22;44806;48.008;13.666;2024-01-16T06:44:15;-0.30;95.90
59025;DHT22;44806;48.008;13.666;2024-01-16T06:46:42;-0.30;95.80
59025;DHT22;44806;48.008;13.666;2024-01-16T06:49:09;-0.30;95.90
59025;DHT22;44806;48.008;13.666;2024-01-16T06:51:36;-0.40;95.90
59025;DHT22;44806;48.008;13.666;2024-01-16T06:54:03;-0.30;95.90
59025;DHT22;44806;48.008;13.666;2024-01-16T06:56:31;-0.30;95.80
59025;DHT22;44806;48.008;13.666;2024-01-16T06:58:58;-0.30;96.50
59025;DHT22;44806;48.008;13.666;2024-01-16T07:01:25;-0.30;96.40
59025;DHT22;44806;48.008;13.666;2024-01-16T07:03:52;-0.30;96.50
59025;DHT22;44806;48.008;13.666;2024-01-16T07:06:19;-0.30;96.30
59025;DHT22;44806;48.008;13.666;2024-01-16T07:08:46;-0.30;95.90
59025;DHT22;44806;48.008;13.666;2024-01-16T07:11:13;-0.30;95.80
59025;DHT22;44806;48.008;13.666;2024-01-16T07:13:40;-0.20;96.20
59025;DHT22;44806;48.008;13.666;2024-01-16T07:16:10;-0.30;96.20
59025;DHT22;44806;48.008;13.666;2024-01-16T07:18:38;-0.30;96.50
59025;DHT22;44806;48.008;13.666;2024-01-16T07:21:16;-0.30;96.00
59025;DHT22;44806;48.008;13.666;2024-01-16T07:23:43;-0.30;96.90
59025;DHT22;44806;48.008;13.666;2024-01-16T07:26:09;-0.20;97.10
59025;DHT22;44806;48.008;13.666;2024-01-16T07:28:36;-0.20;96.40
59025;DHT22;44806;48.008;13.666;2024-01-16T07:31:04;-0.20;97.00
59025;DHT22;44806;48.008;13.666;2024-01-16T07:33:32;-0.20;96.50
59025;DHT22;44806;48.008;13.666;2024-01-16T07:35:59;-0.30;96.10
59025;DHT22;44806;48.008;13.666;2024-01-16T07:38:26;-0.30;96.30
59025;DHT22;44806;48.008;13.666;2024-01-16T07:40:53;-0.50;96.20
59025;DHT22;44806;48.008;13.666;2024-01-16T07:43:21;-0.50;96.30
59025;DHT22;44806;48.008;13.666;2024-01-16T07:45:49;-0.50;96.00
59025;DHT22;44806;48.008;13.666;2024-01-16T07:48:16;-0.50;95.90
59025;DHT22;44806;48.008;13.666;2024-01-16T07:50:44;-0.50;96.20
59025;DHT22;44806;48.008;13.666;2024-01-16T07:53:11;-0.50;96.00
59025;DHT22;44806;48.008;13.666;2024-01-16T07:55:38;-0.60;95.80
59025;DHT22;44806;48.008;13.666;2024-01-16T07:58:05;-0.60;95.70
59025;DHT22;44806;48.008;13.666;2024-01-16T08:00:32;-0.60;95.70
59025;DHT22;44806;48.008;13.666;2024-01-16T08:02:59;-0.60;95.70
59025;DHT22;44806;48.008;13.666;2024-01-16T08:05:26;-0.60;95.40
59025;DHT22;44806;48.008;13.666;2024-01-16T08:07:57;-0.50;95.30
59025;DHT22;44806;48.008;13.666;2024-01-16T08:10:24;-0.50;95.40
59025;DHT22;44806;48.008;13.666;2024-01-16T08:12:51;-0.50;94.70
59025;DHT22;44806;48.008;13.666;2024-01-16T08:15:18;-0.40;95.10
59025;DHT22;44806;48.008;13.666;2024-01-16T08:17:45;-0.30;95.40
59025;DHT22;44806;48.008;13.666;2024-01-16T08:20:12;-0.40;95.10
59025;DHT22;44806;48.008;13.666;2024-01-16T08:22:39;-0.40;94.90
59025;DHT22;44806;48.008;13.666;2024-01-16T08:25:07;-0.30;95.10
59025;DHT22;44806;48.008;13.666;2024-01-16T08:27:34;-0.30;95.20
59025;DHT22;44806;48.008;13.666;2024-01-16T08:30:03;-0.20;95.20
59025;DHT22;44806;48.008;13.666;2024-01-16T08:32:31;-0.10;95.10
59025;DHT22;44806;48.008;13.666;2024-01-16T08:34:58;0.00;95.00
59025;DHT22;44806;48.008;13.666;2024-01-16T08:37:24;-0.10;93.80
59025;DHT22;44806;48.008;13.666;2024-01-16T08:39:52;-0.10;94.00
59025;DHT22;44806;48.008;13.666;2024-01-16T08:42:20;0.00;94.30
59025;DHT22;44806;48.008;13.666;2024-01-16T08:44:47;0.20;94.30
59025;DHT22;44806;48.008;13.666;2024-01-16T08:47:14;0.20;93.60
59025;DHT22;44806;48.008;13.666;2024-01-16T08:49:41;0.20;93.60
59025;DHT22;44806;48.008;13.666;2024-01-16T08:52:09;0.30;93.30
59025;DHT22;44806;48.008;13.666;2024-01-16T08:54:36;0.20;93.40
59025;DHT22;44806;48.008;13.666;2024-01-16T08:57:03;0.30;93.20
59025;DHT22;44806;48.008;13.666;2024-01-16T08:59:31;0.30;93.10
59025;DHT22;44806;48.008;13.666;2024-01-16T09:01:59;0.30;93.30
59025;DHT22;44806;48.008;13.666;2024-01-16T09:04:25;0.40;93.40
59025;DHT22;44806;48.008;13.666;2024-01-16T09:06:52;0.40;93.70
59025;DHT22;44806;48.008;13.666;2024-01-16T09:09:19;0.50;93.80
59025;DHT22;44806;48.008;13.666;2024-01-16T09:11:46;0.40;92.50
59025;DHT22;44806;48.008;13.666;2024-01-16T09:14:13;0.50;92.90
59025;DHT22;44806;48.008;13.666;2024-01-16T09:16:41;0.60;93.00
59025;DHT22;44806;48.008;13.666;2024-01-16T09:19:08;0.60;92.90
59025;DHT22;44806;48.008;13.666;2024-01-16T09:21:36;0.60;92.50
59025;DHT22;44806;48.008;13.666;2024-01-16T09:24:03;0.60;92.20
59025;DHT22;44806;48.008;13.666;2024-01-16T09:26:30;0.60;93.00
59025;DHT22;44806;48.008;13.666;2024-01-16T09:28:58;0.80;92.80
59025;DHT22;44806;48.008;13.666;2024-01-16T09:31:25;0.80;92.90
59025;DHT22;44806;48.008;13.666;2024-01-16T09:33:53;0.90;92.10
59025;DHT22;44806;48.008;13.666;2024-01-16T09:36:20;0.90;92.40
59025;DHT22;44806;48.008;13.666;2024-01-16T09:38:47;0.90;92.20
59025;DHT22;44806;48.008;13.666;2024-01-16T09:41:14;1.10;92.50
59025;DHT22;44806;48.008;13.666;2024-01-16T09:43:41;1.10;91.50
59025;DHT22;44806;48.008;13.666;2024-01-16T09:46:08;1.10;91.30
59025;DHT22;44806;48.008;13.666;2024-01-16T09:48:37;1.20;91.80
59025;DHT22;44806;48.008;13.666;2024-01-16T09:51:06;1.10;91.40
59025;DHT22;44806;48.008;13.666;2024-01-16T09:53:33;1.10;91.10
59025;DHT22;44806;48.008;13.666;2024-01-16T09:56:02;1.00;91.40
59025;DHT22;44806;48.008;13.666;2024-01-16T09:58:33;1.00;91.30
59025;DHT22;44806;48.008;13.666;2024-01-16T10:01:01;1.20;92.30
59025;DHT22;44806;48.008;13.666;2024-01-16T10:03:31;1.20;91.10
59025;DHT22;44806;48.008;13.666;2024-01-16T10:05:58;1.30;91.90
59025;DHT22;44806;48.008;13.666;2024-01-16T10:08:30;1.50;92.10
59025;DHT22;44806;48.008;13.666;2024-01-16T10:10:57;1.60;91.80
59025;DHT22;44806;48.008;13.666;2024-01-16T10:13:24;1.70;91.80
59025;DHT22;44806;48.008;13.666;2024-01-16T10:15:51;1.80;91.00
59025;DHT22;44806;48.008;13.666;2024-01-16T10:18:25;1.90;91.50
59025;DHT22;44806;48.008;13.666;2024-01-16T10:20:52;1.90;90.00
59025;DHT22;44806;48.008;13.666;2024-01-16T10:23:23;2.00;90.60
59025;DHT22;44806;48.008;13.666;2024-01-16T10:28:43;2.10;91.10
59025;DHT22;44806;48.008;13.666;2024-01-16T10:31:11;1.80;86.30
59025;DHT22;44806;48.008;13.666;2024-01-16T10:33:39;1.80;88.90
59025;DHT22;44806;48.008;13.666;2024-01-16T10:36:11;1.90;87.90
59025;DHT22;44806;48.008;13.666;2024-01-16T10:38:38;2.00;88.90
59025;DHT22;44806;48.008;13.666;2024-01-16T10:41:08;1.90;87.90
59025;DHT22;44806;48.008;13.666;2024-01-16T10:43:35;1.90;85.90
59025;DHT22;44806;48.008;13.666;2024-01-16T10:46:12;2.10;89.10
59025;DHT22;44806;48.008;13.666;2024-01-16T10:48:40;2.00;87.10
59025;DHT22;44806;48.008;13.666;2024-01-16T10:51:10;2.10;86.20
59025;DHT22;44806;48.008;13.666;2024-01-16T10:53:41;2.10;86.10
59025;DHT22;44806;48.008;13.666;2024-01-16T10:56:10;2.20;87.70
59025;DHT22;44806;48.008;13.666;2024-01-16T10:58:40;2.30;87.30
59025;DHT22;44806;48.008;13.666;2024-01-16T11:01:12;2.30;88.30
59025;DHT22;44806;48.008;13.666;2024-01-16T11:03:46;2.40;88.20
59025;DHT22;44806;48.008;13.666;2024-01-16T11:06:15;2.40;87.60
59025;DHT22;44806;48.008;13.666;2024-01-16T11:08:42;2.40;86.60
59025;DHT22;44806;48.008;13.666;2024-01-16T11:11:09;2.40;85.00
59025;DHT22;44806;48.008;13.666;2024-01-16T11:13:38;2.40;86.40
59025;DHT22;44806;48.008;13.666;2024-01-16T11:16:05;2.20;84.70
59025;DHT22;44806;48.008;13.666;2024-01-16T11:18:34;2.10;85.20
59025;DHT22;44806;48.008;13.666;2024-01-16T11:21:04;2.30;87.30
59025;DHT22;44806;48.008;13.666;2024-01-16T11:23:31;2.30;85.60
59025;DHT22;44806;48.008;13.666;2024-01-16T11:26:00;2.40;84.50
59025;DHT22;44806;48.008;13.666;2024-01-16T11:28:47;2.40;82.30
59025;DHT22;44806;48.008;13.666;2024-01-16T11:31:27;2.20;83.00
59025;DHT22;44806;48.008;13.666;2024-01-16T11:33:57;2.30;85.30
59025;DHT22;44806;48.008;13.666;2024-01-16T11:36:47;2.30;83.40
59025;DHT22;44806;48.008;13.666;2024-01-16T11:39:19;2.40;85.10
59025;DHT22;44806;48.008;13.666;2024-01-16T11:41:54;2.50;82.00
59025;DHT22;44806;48.008;13.666;2024-01-16T11:44:41;2.40;83.30
59025;DHT22;44806;48.008;13.666;2024-01-16T11:47:08;2.40;80.60
59025;DHT22;44806;48.008;13.666;2024-01-16T11:49:37;2.50;82.80
59025;DHT22;44806;48.008;13.666;2024-01-16T11:52:04;2.40;83.00
59025;DHT22;44806;48.008;13.666;2024-01-16T11:54:33;2.50;82.50
59025;DHT22;44806;48.008;13.666;2024-01-16T11:57:25;2.50;81.10
59025;DHT22;44806;48.008;13.666;2024-01-16T12:00:02;2.40;79.90
59025;DHT22;44806;48.008;13.666;2024-01-16T12:02:50;2.50;82.30
59025;DHT22;44806;48.008;13.666;2024-01-16T12:05:19;2.60;82.00
59025;DHT22;44806;48.008;13.666;2024-01-16T12:07:47;2.70;81.10
59025;DHT22;44806;48.008;13.666;2024-01-16T12:10:16;2.60;81.10
59025;DHT22;44806;48.008;13.666;2024-01-16T12:12:43;2.80;81.70
59025;DHT22;44806;48.008;13.666;2024-01-16T12:15:14;2.80;80.90
59025;DHT22;44806;48.008;13.666;2024-01-16T12:17:56;2.90;83.40
59025;DHT22;44806;48.008;13.666;2024-01-16T12:20:26;2.90;82.30
59025;DHT22;44806;48.008;13.666;2024-01-16T12:22:55;2.90;80.80
59025;DHT22;44806;48.008;13.666;2024-01-16T12:25:23;2.80;81.90
59025;DHT22;44806;48.008;13.666;2024-01-16T12:27:55;2.80;80.30
59025;DHT22;44806;48.008;13.666;2024-01-16T12:30:24;2.60;78.20
59025;DHT22;44806;48.008;13.666;2024-01-16T12:32:51;2.70;80.50
59025;DHT22;44806;48.008;13.666;2024-01-16T12:35:23;2.70;79.30
59025;DHT22;44806;48.008;13.666;2024-01-16T12:38:00;2.60;78.60
59025;DHT22;44806;48.008;13.666;2024-01-16T12:40:27;2.60;82.30
59025;DHT22;44806;48.008;13.666;2024-01-16T12:42:55;2.60;78.90
59025;DHT22;44806;48.008;13.666;2024-01-16T12:45:22;2.40;79.30
59025;DHT22;44806;48.008;13.666;2024-01-16T12:47:52;2.40;79.90
59025;DHT22;44806;48.008;13.666;2024-01-16T12:50:20;2.30;79.30
59025;DHT22;44806;48.008;13.666;2024-01-16T12:52:50;2.30;79.70
59025;DHT22;44806;48.008;13.666;2024-01-16T12:55:17;2.30;79.90
59025;DHT22;44806;48.008;13.666;2024-01-16T12:57:44;2.40;79.60
59025;DHT22;44806;48.008;13.666;2024-01-16T13:00:22;2.30;79.50
59025;DHT22;44806;48.008;13.666;2024-01-16T13:02:50;2.40;79.00
59025;DHT22;44806;48.008;13.666;2024-01-16T13:05:18;2.50;80.00
59025;DHT22;44806;48.008;13.666;2024-01-16T13:07:45;2.60;80.30
59025;DHT22;44806;48.008;13.666;2024-01-16T13:10:14;2.60;78.40
59025;DHT22;44806;48.008;13.666;2024-01-16T13:12:44;2.60;79.20
59025;DHT22;44806;48.008;13.666;2024-01-16T13:15:11;2.80;78.80
59025;DHT22;44806;48.008;13.666;2024-01-16T13:17:42;2.90;77.20
59025;DHT22;44806;48.008;13.666;2024-01-16T13:20:09;2.90;77.20
59025;DHT22;44806;48.008;13.666;2024-01-16T13:22:38;3.00;78.30
59025;DHT22;44806;48.008;13.666;2024-01-16T13:25:06;3.00;75.80
59025;DHT22;44806;48.008;13.666;2024-01-16T13:27:34;3.00;75.70
59025;DHT22;44806;48.008;13.666;2024-01-16T13:30:02;2.80;75.20
59025;DHT22;44806;48.008;13.666;2024-01-16T13:32:29;2.80;76.60
59025;DHT22;44806;48.008;13.666;2024-01-16T13:34:56;2.80;79.20
59025;DHT22;44806;48.008;13.666;2024-01-16T13:37:23;2.70;77.20
59025;DHT22;44806;48.008;13.666;2024-01-16T13:39:50;2.70;79.70
59025;DHT22;44806;48.008;13.666;2024-01-16T13:42:17;2.80;80.10
59025;DHT22;44806;48.008;13.666;2024-01-16T13:44:47;2.90;80.00
59025;DHT22;44806;48.008;13.666;2024-01-16T13:47:15;3.00;81.00
59025;DHT22;44806;48.008;13.666;2024-01-16T13:49:44;3.00;81.20
59025;DHT22;44806;48.008;13.666;2024-01-16T13:52:11;3.00;80.90
59025;DHT22;44806;48.008;13.666;2024-01-16T13:54:38;2.80;80.70
59025;DHT22;44806;48.008;13.666;2024-01-16T13:57:06;2.90;81.00
59025;DHT22;44806;48.008;13.666;2024-01-16T13:59:33;2.90;81.30
59025;DHT22;44806;48.008;13.666;2024-01-16T14:02:02;3.00;81.00
59025;DHT22;44806;48.008;13.666;2024-01-16T14:04:29;2.90;83.30
59025;DHT22;44806;48.008;13.666;2024-01-16T14:06:56;2.90;81.00
59025;DHT22;44806;48.008;13.666;2024-01-16T14:09:24;2.90;82.10
59025;DHT22;44806;48.008;13.666;2024-01-16T14:11:50;2.80;83.50
59025;DHT22;44806;48.008;13.666;2024-01-16T14:14:17;2.80;82.80
59025;DHT22;44806;48.008;13.666;2024-01-16T14:16:44;2.70;84.50
59025;DHT22;44806;48.008;13.666;2024-01-16T14:19:17;2.70;86.50
59025;DHT22;44806;48.008;13.666;2024-01-16T14:21:43;2.70;83.20
59025;DHT22;44806;48.008;13.666;2024-01-16T14:24:12;2.70;84.70
59025;DHT22;44806;48.008;13.666;2024-01-16T14:26:42;2.70;84.80
59025;DHT22;44806;48.008;13.666;2024-01-16T14:29:11;2.70;84.40
59025;DHT22;44806;48.008;13.666;2024-01-16T14:31:38;2.70;82.10
59025;DHT22;44806;48.008;13.666;2024-01-16T14:34:10;2.70;82.10
59025;DHT22;44806;48.008;13.666;2024-01-16T14:36:39;2.70;82.70
59025;DHT22;44806;48.008;13.666;2024-01-16T14:39:06;2.70;83.30
59025;DHT22;44806;48.008;13.666;2024-01-16T14:41:35;2.70;84.30
59025;DHT22;44806;48.008;13.666;2024-01-16T14:44:02;2.70;82.90
59025;DHT22;44806;48.008;13.666;2024-01-16T14:46:30;2.70;82.90
59025;DHT22;44806;48.008;13.666;2024-01-16T14:48:58;2.70;83.50
59025;DHT22;44806;48.008;13.666;2024-01-16T14:51:25;2.60;85.00
59025;DHT22;44806;48.008;13.666;2024-01-16T14:53:54;2.50;84.40
59025;DHT22;44806;48.008;13.666;2024-01-16T14:56:21;2.40;86.80
59025;DHT22;44806;48.008;13.666;2024-01-16T14:58:48;2.40;86.60
59025;DHT22;44806;48.008;13.666;2024-01-16T15:01:15;2.40;86.90
59025;DHT22;44806;48.008;13.666;2024-01-16T15:03:42;2.50;87.20
59025;DHT22;44806;48.008;13.666;2024-01-16T15:06:09;2.50;85.80
59025;DHT22;44806;48.008;13.666;2024-01-16T15:08:38;2.40;84.90
59025;DHT22;44806;48.008;13.666;2024-01-16T15:11:06;2.40;84.80
59025;DHT22;44806;48.008;13.666;2024-01-16T15:13:33;2.40;86.60
59025;DHT22;44806;48.008;13.666;2024-01-16T15:16:00;2.30;87.20
59025;DHT22;44806;48.008;13.666;2024-01-16T15:18:27;2.30;87.60
59025;DHT22;44806;48.008;13.666;2024-01-16T15:20:54;2.20;86.00
59025;DHT22;44806;48.008;13.666;2024-01-16T15:23:22;2.20;88.10
59025;DHT22;44806;48.008;13.666;2024-01-16T15:25:50;2.10;90.40
59025;DHT22;44806;48.008;13.666;2024-01-16T15:28:19;2.10;90.40
59025;DHT22;44806;48.008;13.666;2024-01-16T15:30:45;2.20;90.40